sensor_id;sensor_type;location;lat;lon;timestamp;P1;durP1;ratioP1;P2;durP2;ratioP2
65535;SDS011;52145;49.342;9.116;2023-07-13T00:01:11;4.75;;;1.83;;
65535;SDS011;52145;49.342;9.116;2023-07-13T00:03:37;4.30;;;1.95;;
65535;SDS011;52145;49.342;9.116;2023-07-13T00:06:03;4.50;;;1.60;;
65535;SDS011;52145;49.342;9.116;2023-07-13T00:08:30;4.18;;;2.10;;
65535;SDS011;52145;49.342;9.116;2023-07-13T00:10:58;5.38;;;1.60;;
65535;SDS011;52145;49.342;9.116;2023-07-13T00:13:23;3.72;;;1.83;;
65535;SDS011;52145;49.342;9.116;2023-07-13T00:15:49;3.80;;;1.65;;
65535;SDS011;52145;49.342;9.116;2023-07-13T00:18:15;4.82;;;1.70;;
65535;SDS011;52145;49.342;9.116;2023-07-13T00:20:41;2.95;;;1.95;;
65535;SDS011;52145;49.342;9.116;2023-07-13T00:23:08;5.10;;;1.50;;
65535;SDS011;52145;49.342;9.116;2023-07-13T00:25:34;8.75;;;2.17;;
65535;SDS011;52145;49.342;9.116;2023-07-13T00:28:00;3.22;;;2.05;;
65535;SDS011;52145;49.342;9.116;2023-07-13T00:30:26;5.65;;;2.00;;
65535;SDS011;52145;49.342;9.116;2023-07-13T00:32:52;5.28;;;2.28;;
65535;SDS011;52145;49.342;9.116;2023-07-13T00:35:18;5.50;;;2.00;;
65535;SDS011;52145;49.342;9.116;2023-07-13T00:37:44;4.22;;;2.28;;
65535;SDS011;52145;49.342;9.116;2023-07-13T00:40:13;3.78;;;1.50;;
65535;SDS011;52145;49.342;9.116;2023-07-13T00:42:39;3.05;;;1.77;;
65535;SDS011;52145;49.342;9.116;2023-07-13T00:47:41;3.85;;;2.10;;
65535;SDS011;52145;49.342;9.116;2023-07-13T00:50:08;4.88;;;2.00;;
65535;SDS011;52145;49.342;9.116;2023-07-13T00:52:36;5.75;;;2.28;;
65535;SDS011;52145;49.342;9.116;2023-07-13T00:55:03;6.25;;;2.80;;
65535;SDS011;52145;49.342;9.116;2023-07-13T00:57:30;5.03;;;2.08;;
65535;SDS011;52145;49.342;9.116;2023-07-13T00:59:57;6.43;;;2.15;;
65535;SDS011;52145;49.342;9.116;2023-07-13T01:02:24;6.05;;;2.25;;
65535;SDS011;52145;49.342;9.116;2023-07-13T01:04:50;7.07;;;2.13;;
65535;SDS011;52145;49.342;9.116;2023-07-13T01:07:16;5.00;;;1.92;;
65535;SDS011;52145;49.342;9.116;2023-07-13T01:09:44;5.22;;;1.92;;
65535;SDS011;52145;49.342;9.116;2023-07-13T01:12:10;3.78;;;1.70;;
65535;SDS011;52145;49.342;9.116;2023-07-13T01:14:36;4.82;;;1.95;;
65535;SDS011;52145;49.342;9.116;2023-07-13T01:17:02;6.25;;;2.00;;
65535;SDS011;52145;49.342;9.116;2023-07-13T01:19:32;4.55;;;1.75;;
65535;SDS011;52145;49.342;9.116;2023-07-13T01:22:01;3.45;;;1.70;;
65535;SDS011;52145;49.342;9.116;2023-07-13T01:24:27;3.92;;;1.67;;
65535;SDS011;52145;49.342;9.116;2023-07-13T01:26:53;4.90;;;2.03;;
65535;SDS011;52145;49.342;9.116;2023-07-13T01:29:20;5.72;;;1.60;;
65535;SDS011;52145;49.342;9.116;2023-07-13T01:31:46;5.90;;;2.00;;
65535;SDS011;52145;49.342;9.116;2023-07-13T01:34:12;5.65;;;2.00;;
65535;SDS011;52145;49.342;9.116;2023-07-13T01:36:38;6.95;;;2.28;;
65535;SDS011;52145;49.342;9.116;2023-07-13T01:39:04;6.20;;;2.38;;
65535;SDS011;52145;49.342;9.116;2023-07-13T01:41:30;5.65;;;1.90;;
65535;SDS011;52145;49.342;9.116;2023-07-13T01:43:56;8.13;;;2.83;;
65535;SDS011;52145;49.342;9.116;2023-07-13T01:46:22;6.95;;;1.92;;
65535;SDS011;52145;49.342;9.116;2023-07-13T01:48:48;4.13;;;1.90;;
65535;SDS011;52145;49.342;9.116;2023-07-13T01:51:15;5.60;;;2.03;;
65535;SDS011;52145;49.342;9.116;2023-07-13T01:53:41;3.65;;;1.73;;
65535;SDS011;52145;49.342;9.116;2023-07-13T01:56:06;11.07;;;3.00;;
65535;SDS011;52145;49.342;9.116;2023-07-13T01:58:32;8.00;;;3.33;;
65535;SDS011;52145;49.342;9.116;2023-07-13T02:00:58;8.23;;;3.33;;
65535;SDS011;52145;49.342;9.116;2023-07-13T02:03:24;5.95;;;2.40;;
65535;SDS011;52145;49.342;9.116;2023-07-13T02:05:50;12.07;;;2.63;;
65535;SDS011;52145;49.342;9.116;2023-07-13T02:08:16;9.80;;;2.85;;
65535;SDS011;52145;49.342;9.116;2023-07-13T02:10:42;4.70;;;1.83;;
65535;SDS011;52145;49.342;9.116;2023-07-13T02:13:08;6.63;;;2.35;;
65535;SDS011;52145;49.342;9.116;2023-07-13T02:15:34;4.38;;;1.92;;
65535;SDS011;52145;49.342;9.116;2023-07-13T02:18:00;4.57;;;1.77;;
65535;SDS011;52145;49.342;9.116;2023-07-13T02:20:26;3.83;;;1.73;;
65535;SDS011;52145;49.342;9.116;2023-07-13T02:22:52;4.47;;;1.77;;
65535;SDS011;52145;49.342;9.116;2023-07-13T02:25:18;4.70;;;2.40;;
65535;SDS011;52145;49.342;9.116;2023-07-13T02:27:43;3.92;;;1.77;;
65535;SDS011;52145;49.342;9.116;2023-07-13T02:30:10;8.18;;;1.80;;
65535;SDS011;52145;49.342;9.116;2023-07-13T02:32:36;5.05;;;1.73;;
65535;SDS011;52145;49.342;9.116;2023-07-13T02:35:02;5.88;;;1.98;;
65535;SDS011;52145;49.342;9.116;2023-07-13T02:37:28;4.05;;;1.77;;
65535;SDS011;52145;49.342;9.116;2023-07-13T02:39:55;3.40;;;1.70;;
65535;SDS011;52145;49.342;9.116;2023-07-13T02:42:21;5.00;;;1.70;;
65535;SDS011;52145;49.342;9.116;2023-07-13T02:44:46;8.88;;;1.90;;
65535;SDS011;52145;49.342;9.116;2023-07-13T02:47:14;4.63;;;1.98;;
65535;SDS011;52145;49.342;9.116;2023-07-13T02:49:40;5.57;;;2.03;;
65535;SDS011;52145;49.342;9.116;2023-07-13T02:52:06;4.38;;;1.85;;
65535;SDS011;52145;49.342;9.116;2023-07-13T02:54:32;3.60;;;1.95;;
65535;SDS011;52145;49.342;9.116;2023-07-13T02:56:58;2.97;;;1.67;;
65535;SDS011;52145;49.342;9.116;2023-07-13T02:59:24;4.22;;;1.80;;
65535;SDS011;52145;49.342;9.116;2023-07-13T03:01:50;3.70;;;1.83;;
65535;SDS011;52145;49.342;9.116;2023-07-13T03:04:16;4.05;;;1.92;;
65535;SDS011;52145;49.342;9.116;2023-07-13T03:06:44;4.32;;;2.00;;
65535;SDS011;52145;49.342;9.116;2023-07-13T03:09:11;3.10;;;1.73;;
65535;SDS011;52145;49.342;9.116;2023-07-13T03:11:37;3.63;;;2.15;;
65535;SDS011;52145;49.342;9.116;2023-07-13T03:14:03;3.78;;;1.98;;
65535;SDS011;52145;49.342;9.116;2023-07-13T03:16:29;5.53;;;2.55;;
65535;SDS011;52145;49.342;9.116;2023-07-13T03:18:55;5.10;;;2.00;;
65535;SDS011;52145;49.342;9.116;2023-07-13T03:21:21;4.65;;;2.17;;
65535;SDS011;52145;49.342;9.116;2023-07-13T03:23:47;6.65;;;1.92;;
65535;SDS011;52145;49.342;9.116;2023-07-13T03:26:14;5.70;;;2.17;;
65535;SDS011;52145;49.342;9.116;2023-07-13T03:28:41;3.55;;;1.80;;
65535;SDS011;52145;49.342;9.116;2023-07-13T03:31:09;4.20;;;1.80;;
65535;SDS011;52145;49.342;9.116;2023-07-13T03:33:35;4.97;;;1.88;;
65535;SDS011;52145;49.342;9.116;2023-07-13T03:36:02;3.88;;;1.70;;
65535;SDS011;52145;49.342;9.116;2023-07-13T03:38:28;5.28;;;1.80;;
65535;SDS011;52145;49.342;9.116;2023-07-13T03:40:54;4.40;;;1.77;;
65535;SDS011;52145;49.342;9.116;2023-07-13T03:43:20;6.50;;;2.47;;
65535;SDS011;52145;49.342;9.116;2023-07-13T03:45:46;8.88;;;2.15;;
65535;SDS011;52145;49.342;9.116;2023-07-13T03:48:12;7.15;;;2.53;;
65535;SDS011;52145;49.342;9.116;2023-07-13T03:50:39;7.47;;;2.40;;
65535;SDS011;52145;49.342;9.116;2023-07-13T03:53:05;4.32;;;2.10;;
65535;SDS011;52145;49.342;9.116;2023-07-13T03:55:31;7.10;;;2.05;;
65535;SDS011;52145;49.342;9.116;2023-07-13T03:58:01;6.72;;;2.00;;
65535;SDS011;52145;49.342;9.116;2023-07-13T04:00:46;10.05;;;2.42;;
65535;SDS011;52145;49.342;9.116;2023-07-13T04:03:11;5.47;;;2.08;;
65535;SDS011;52145;49.342;9.116;2023-07-13T04:05:37;5.07;;;2.20;;
65535;SDS011;52145;49.342;9.116;2023-07-13T04:08:05;4.50;;;1.80;;
65535;SDS011;52145;49.342;9.116;2023-07-13T04:10:31;4.38;;;2.17;;
65535;SDS011;52145;49.342;9.116;2023-07-13T04:12:57;4.20;;;2.22;;
65535;SDS011;52145;49.342;9.116;2023-07-13T04:15:23;4.85;;;2.28;;
65535;SDS011;52145;49.342;9.116;2023-07-13T04:17:49;6.22;;;2.17;;
65535;SDS011;52145;49.342;9.116;2023-07-13T04:20:15;6.25;;;2.78;;
65535;SDS011;52145;49.342;9.116;2023-07-13T04:22:41;8.68;;;2.40;;
65535;SDS011;52145;49.342;9.116;2023-07-13T04:25:07;7.95;;;2.40;;
65535;SDS011;52145;49.342;9.116;2023-07-13T04:27:33;5.03;;;2.70;;
65535;SDS011;52145;49.342;9.116;2023-07-13T04:29:59;7.43;;;3.40;;
65535;SDS011;52145;49.342;9.116;2023-07-13T04:32:25;11.07;;;3.95;;
65535;SDS011;52145;49.342;9.116;2023-07-13T04:34:51;12.25;;;3.58;;
65535;SDS011;52145;49.342;9.116;2023-07-13T04:37:19;10.65;;;3.70;;
65535;SDS011;52145;49.342;9.116;2023-07-13T04:39:46;6.80;;;3.50;;
65535;SDS011;52145;49.342;9.116;2023-07-13T04:42:11;6.68;;;2.95;;
65535;SDS011;52145;49.342;9.116;2023-07-13T04:44:37;7.18;;;3.85;;
65535;SDS011;52145;49.342;9.116;2023-07-13T04:47:03;8.98;;;3.22;;
65535;SDS011;52145;49.342;9.116;2023-07-13T04:49:29;7.63;;;2.75;;
65535;SDS011;52145;49.342;9.116;2023-07-13T04:51:55;6.50;;;2.47;;
65535;SDS011;52145;49.342;9.116;2023-07-13T04:54:21;5.03;;;2.47;;
65535;SDS011;52145;49.342;9.116;2023-07-13T04:56:47;5.38;;;2.60;;
65535;SDS011;52145;49.342;9.116;2023-07-13T04:59:13;5.68;;;2.10;;
65535;SDS011;52145;49.342;9.116;2023-07-13T05:01:39;5.90;;;2.10;;
65535;SDS011;52145;49.342;9.116;2023-07-13T05:04:06;5.10;;;2.22;;
65535;SDS011;52145;49.342;9.116;2023-07-13T05:06:32;3.75;;;1.90;;
65535;SDS011;52145;49.342;9.116;2023-07-13T05:08:58;5.55;;;2.00;;
65535;SDS011;52145;49.342;9.116;2023-07-13T05:11:24;5.50;;;2.38;;
65535;SDS011;52145;49.342;9.116;2023-07-13T05:13:50;5.07;;;2.10;;
65535;SDS011;52145;49.342;9.116;2023-07-13T05:16:16;5.07;;;2.13;;
65535;SDS011;52145;49.342;9.116;2023-07-13T05:18:42;5.18;;;1.98;;
65535;SDS011;52145;49.342;9.116;2023-07-13T05:21:08;6.80;;;2.35;;
65535;SDS011;52145;49.342;9.116;2023-07-13T05:23:35;3.85;;;2.22;;
65535;SDS011;52145;49.342;9.116;2023-07-13T05:26:01;4.85;;;2.10;;
65535;SDS011;52145;49.342;9.116;2023-07-13T05:28:28;5.72;;;2.58;;
65535;SDS011;52145;49.342;9.116;2023-07-13T05:30:54;5.25;;;2.05;;
65535;SDS011;52145;49.342;9.116;2023-07-13T05:33:20;4.22;;;2.15;;
65535;SDS011;52145;49.342;9.116;2023-07-13T05:35:46;4.10;;;2.00;;
65535;SDS011;52145;49.342;9.116;2023-07-13T05:38:12;4.18;;;2.03;;
65535;SDS011;52145;49.342;9.116;2023-07-13T05:40:38;4.15;;;2.33;;
65535;SDS011;52145;49.342;9.116;2023-07-13T05:43:04;4.50;;;2.00;;
65535;SDS011;52145;49.342;9.116;2023-07-13T05:45:30;6.53;;;2.33;;
65535;SDS011;52145;49.342;9.116;2023-07-13T05:47:56;4.25;;;2.08;;
65535;SDS011;52145;49.342;9.116;2023-07-13T05:50:22;6.90;;;2.72;;
65535;SDS011;52145;49.342;9.116;2023-07-13T05:52:48;3.55;;;1.70;;
65535;SDS011;52145;49.342;9.116;2023-07-13T05:55:14;3.90;;;1.52;;
65535;SDS011;52145;49.342;9.116;2023-07-13T05:57:40;4.07;;;1.95;;
65535;SDS011;52145;49.342;9.116;2023-07-13T06:00:06;3.30;;;1.58;;
65535;SDS011;52145;49.342;9.116;2023-07-13T06:02:32;6.90;;;1.80;;
65535;SDS011;52145;49.342;9.116;2023-07-13T06:04:58;5.03;;;2.00;;
65535;SDS011;52145;49.342;9.116;2023-07-13T06:07:24;4.85;;;2.00;;
65535;SDS011;52145;49.342;9.116;2023-07-13T06:09:50;4.15;;;1.67;;
65535;SDS011;52145;49.342;9.116;2023-07-13T06:12:16;4.00;;;2.03;;
65535;SDS011;52145;49.342;9.116;2023-07-13T06:14:42;5.50;;;2.15;;
65535;SDS011;52145;49.342;9.116;2023-07-13T06:17:08;4.38;;;1.90;;
65535;SDS011;52145;49.342;9.116;2023-07-13T06:19:34;6.22;;;1.58;;
65535;SDS011;52145;49.342;9.116;2023-07-13T06:22:00;4.68;;;1.50;;
65535;SDS011;52145;49.342;9.116;2023-07-13T06:24:26;4.18;;;1.80;;
65535;SDS011;52145;49.342;9.116;2023-07-13T06:26:52;5.53;;;1.60;;
65535;SDS011;52145;49.342;9.116;2023-07-13T06:29:18;3.88;;;1.60;;
65535;SDS011;52145;49.342;9.116;2023-07-13T06:31:44;6.03;;;2.20;;
65535;SDS011;52145;49.342;9.116;2023-07-13T06:34:10;6.70;;;1.75;;
65535;SDS011;52145;49.342;9.116;2023-07-13T06:36:36;6.68;;;1.52;;
65535;SDS011;52145;49.342;9.116;2023-07-13T06:39:03;3.05;;;1.48;;
65535;SDS011;52145;49.342;9.116;2023-07-13T06:41:29;2.97;;;1.55;;
65535;SDS011;52145;49.342;9.116;2023-07-13T06:43:55;3.17;;;1.67;;
65535;SDS011;52145;49.342;9.116;2023-07-13T06:46:22;7.20;;;2.05;;
65535;SDS011;52145;49.342;9.116;2023-07-13T06:48:48;3.45;;;1.55;;
65535;SDS011;52145;49.342;9.116;2023-07-13T06:51:14;3.85;;;1.60;;
65535;SDS011;52145;49.342;9.116;2023-07-13T06:53:40;4.95;;;1.42;;
65535;SDS011;52145;49.342;9.116;2023-07-13T06:56:08;3.85;;;1.45;;
65535;SDS011;52145;49.342;9.116;2023-07-13T06:58:35;4.60;;;1.20;;
65535;SDS011;52145;49.342;9.116;2023-07-13T07:01:01;4.72;;;1.45;;
65535;SDS011;52145;49.342;9.116;2023-07-13T07:03:27;5.38;;;1.77;;
65535;SDS011;52145;49.342;9.116;2023-07-13T07:05:53;5.32;;;1.67;;
65535;SDS011;52145;49.342;9.116;2023-07-13T07:08:19;6.85;;;1.70;;
65535;SDS011;52145;49.342;9.116;2023-07-13T07:10:45;6.15;;;1.70;;
65535;SDS011;52145;49.342;9.116;2023-07-13T07:13:11;5.95;;;1.52;;
65535;SDS011;52145;49.342;9.116;2023-07-13T07:15:37;3.42;;;1.50;;
65535;SDS011;52145;49.342;9.116;2023-07-13T07:18:03;3.80;;;2.03;;
65535;SDS011;52145;49.342;9.116;2023-07-13T07:20:29;6.28;;;1.52;;
65535;SDS011;52145;49.342;9.116;2023-07-13T07:22:55;4.90;;;1.70;;
65535;SDS011;52145;49.342;9.116;2023-07-13T07:25:21;4.93;;;1.65;;
65535;SDS011;52145;49.342;9.116;2023-07-13T07:27:47;3.22;;;1.60;;
65535;SDS011;52145;49.342;9.116;2023-07-13T07:30:13;6.47;;;1.60;;
65535;SDS011;52145;49.342;9.116;2023-07-13T07:32:40;3.45;;;1.25;;
65535;SDS011;52145;49.342;9.116;2023-07-13T07:35:06;6.45;;;1.80;;
65535;SDS011;52145;49.342;9.116;2023-07-13T07:37:32;5.93;;;1.65;;
65535;SDS011;52145;49.342;9.116;2023-07-13T07:39:58;2.60;;;1.10;;
65535;SDS011;52145;49.342;9.116;2023-07-13T07:42:24;3.83;;;1.73;;
65535;SDS011;52145;49.342;9.116;2023-07-13T07:44:50;3.28;;;1.45;;
65535;SDS011;52145;49.342;9.116;2023-07-13T07:47:16;5.78;;;1.63;;
65535;SDS011;52145;49.342;9.116;2023-07-13T07:49:42;3.80;;;1.13;;
65535;SDS011;52145;49.342;9.116;2023-07-13T07:52:08;2.88;;;1.40;;
65535;SDS011;52145;49.342;9.116;2023-07-13T07:54:34;3.33;;;1.35;;
65535;SDS011;52145;49.342;9.116;2023-07-13T07:57:00;5.38;;;1.40;;
65535;SDS011;52145;49.342;9.116;2023-07-13T07:59:26;2.28;;;1.23;;
65535;SDS011;52145;49.342;9.116;2023-07-13T08:01:52;6.75;;;1.95;;
65535;SDS011;52145;49.342;9.116;2023-07-13T08:04:18;4.20;;;1.40;;
65535;SDS011;52145;49.342;9.116;2023-07-13T08:06:44;5.53;;;1.10;;
65535;SDS011;52145;49.342;9.116;2023-07-13T08:09:10;4.43;;;1.33;;
65535;SDS011;52145;49.342;9.116;2023-07-13T08:11:36;4.32;;;1.52;;
65535;SDS011;52145;49.342;9.116;2023-07-13T08:14:02;3.17;;;1.10;;
65535;SDS011;52145;49.342;9.116;2023-07-13T08:16:28;3.97;;;1.20;;
65535;SDS011;52145;49.342;9.116;2023-07-13T08:18:54;4.00;;;1.40;;
65535;SDS011;52145;49.342;9.116;2023-07-13T08:21:20;4.85;;;1.23;;
65535;SDS011;52145;49.342;9.116;2023-07-13T08:23:47;3.90;;;1.33;;
65535;SDS011;52145;49.342;9.116;2023-07-13T08:26:13;2.60;;;1.05;;
65535;SDS011;52145;49.342;9.116;2023-07-13T08:28:39;7.35;;;1.55;;
65535;SDS011;52145;49.342;9.116;2023-07-13T08:31:06;4.65;;;1.20;;
65535;SDS011;52145;49.342;9.116;2023-07-13T08:33:33;5.47;;;1.20;;
65535;SDS011;52145;49.342;9.116;2023-07-13T08:36:00;3.47;;;1.20;;
65535;SDS011;52145;49.342;9.116;2023-07-13T08:38:26;6.35;;;1.50;;
65535;SDS011;52145;49.342;9.116;2023-07-13T08:40:53;4.68;;;1.20;;
65535;SDS011;52145;49.342;9.116;2023-07-13T08:43:21;2.90;;;1.20;;
65535;SDS011;52145;49.342;9.116;2023-07-13T08:48:18;5.05;;;1.42;;
65535;SDS011;52145;49.342;9.116;2023-07-13T08:51:02;2.78;;;1.23;;
65535;SDS011;52145;49.342;9.116;2023-07-13T08:53:31;2.90;;;1.10;;
65535;SDS011;52145;49.342;9.116;2023-07-13T08:55:59;5.68;;;1.15;;
65535;SDS011;52145;49.342;9.116;2023-07-13T08:58:26;4.20;;;1.70;;
65535;SDS011;52145;49.342;9.116;2023-07-13T09:04:02;5.18;;;1.27;;
65535;SDS011;52145;49.342;9.116;2023-07-13T09:06:43;6.25;;;1.40;;
65535;SDS011;52145;49.342;9.116;2023-07-13T09:09:27;2.97;;;1.38;;
65535;SDS011;52145;49.342;9.116;2023-07-13T09:14:54;4.97;;;1.30;;
65535;SDS011;52145;49.342;9.116;2023-07-13T09:20:23;6.18;;;1.40;;
65535;SDS011;52145;49.342;9.116;2023-07-13T09:22:51;3.22;;;1.38;;
65535;SDS011;52145;49.342;9.116;2023-07-13T09:25:24;6.32;;;1.40;;
65535;SDS011;52145;49.342;9.116;2023-07-13T09:27:50;7.18;;;1.35;;
65535;SDS011;52145;49.342;9.116;2023-07-13T09:30:23;6.07;;;1.88;;
65535;SDS011;52145;49.342;9.116;2023-07-13T09:32:51;3.63;;;1.30;;
65535;SDS011;52145;49.342;9.116;2023-07-13T09:35:20;3.00;;;1.33;;
65535;SDS011;52145;49.342;9.116;2023-07-13T09:37:47;8.57;;;1.83;;
65535;SDS011;52145;49.342;9.116;2023-07-13T09:40:56;6.88;;;1.25;;
65535;SDS011;52145;49.342;9.116;2023-07-13T09:43:02;5.80;;;1.23;;
65535;SDS011;52145;49.342;9.116;2023-07-13T09:45:30;4.60;;;1.25;;
65535;SDS011;52145;49.342;9.116;2023-07-13T09:48:03;5.90;;;1.40;;
65535;SDS011;52145;49.342;9.116;2023-07-13T09:50:30;4.82;;;1.13;;
65535;SDS011;52145;49.342;9.116;2023-07-13T09:52:56;4.13;;;1.33;;
65535;SDS011;52145;49.342;9.116;2023-07-13T09:55:25;7.25;;;1.92;;
65535;SDS011;52145;49.342;9.116;2023-07-13T09:57:51;9.43;;;1.60;;
65535;SDS011;52145;49.342;9.116;2023-07-13T10:00:27;4.70;;;1.50;;
65535;SDS011;52145;49.342;9.116;2023-07-13T10:07:55;5.53;;;1.90;;
65535;SDS011;52145;49.342;9.116;2023-07-13T10:10:22;7.63;;;2.17;;
65535;SDS011;52145;49.342;9.116;2023-07-13T10:12:48;2.92;;;1.50;;
65535;SDS011;52145;49.342;9.116;2023-07-13T10:15:22;6.47;;;1.42;;
65535;SDS011;52145;49.342;9.116;2023-07-13T10:17:49;4.43;;;2.17;;
65535;SDS011;52145;49.342;9.116;2023-07-13T10:20:16;4.72;;;1.60;;
65535;SDS011;52145;49.342;9.116;2023-07-13T10:22:54;2.95;;;1.20;;
65535;SDS011;52145;49.342;9.116;2023-07-13T10:25:23;7.65;;;1.38;;
65535;SDS011;52145;49.342;9.116;2023-07-13T10:27:50;4.35;;;1.33;;
65535;SDS011;52145;49.342;9.116;2023-07-13T10:30:19;4.05;;;1.50;;
65535;SDS011;52145;49.342;9.116;2023-07-13T10:32:45;5.93;;;1.70;;
65535;SDS011;52145;49.342;9.116;2023-07-13T10:35:12;3.88;;;1.50;;
65535;SDS011;52145;49.342;9.116;2023-07-13T10:37:49;9.10;;;1.60;;
65535;SDS011;52145;49.342;9.116;2023-07-13T10:40:18;6.53;;;1.60;;
65535;SDS011;52145;49.342;9.116;2023-07-13T10:42:47;3.63;;;1.20;;
65535;SDS011;52145;49.342;9.116;2023-07-13T10:45:17;3.40;;;1.20;;
65535;SDS011;52145;49.342;9.116;2023-07-13T10:47:44;3.85;;;1.42;;
65535;SDS011;52145;49.342;9.116;2023-07-13T10:50:17;3.63;;;1.40;;
65535;SDS011;52145;49.342;9.116;2023-07-13T10:52:52;5.03;;;1.52;;
65535;SDS011;52145;49.342;9.116;2023-07-13T10:58:41;3.72;;;1.17;;
65535;SDS011;52145;49.342;9.116;2023-07-13T11:00:56;3.35;;;1.30;;
65535;SDS011;52145;49.342;9.116;2023-07-13T11:03:22;5.10;;;1.15;;
65535;SDS011;52145;49.342;9.116;2023-07-13T11:05:51;4.75;;;1.83;;
65535;SDS011;52145;49.342;9.116;2023-07-13T11:08:34;5.10;;;1.45;;
65535;SDS011;52145;49.342;9.116;2023-07-13T11:11:04;5.18;;;1.40;;
65535;SDS011;52145;49.342;9.116;2023-07-13T11:18:44;4.25;;;1.35;;
65535;SDS011;52145;49.342;9.116;2023-07-13T11:21:14;3.03;;;1.45;;
65535;SDS011;52145;49.342;9.116;2023-07-13T11:23:44;7.25;;;1.55;;
65535;SDS011;52145;49.342;9.116;2023-07-13T11:28:56;2.50;;;1.20;;
65535;SDS011;52145;49.342;9.116;2023-07-13T11:31:22;3.95;;;1.00;;
65535;SDS011;52145;49.342;9.116;2023-07-13T11:33:52;7.68;;;1.83;;
65535;SDS011;52145;49.342;9.116;2023-07-13T11:36:20;4.85;;;1.17;;
65535;SDS011;52145;49.342;9.116;2023-07-13T11:41:53;6.63;;;1.77;;
65535;SDS011;52145;49.342;9.116;2023-07-13T11:44:19;3.78;;;1.27;;
65535;SDS011;52145;49.342;9.116;2023-07-13T11:46:47;4.05;;;1.50;;
65535;SDS011;52145;49.342;9.116;2023-07-13T11:49:15;2.78;;;1.10;;
65535;SDS011;52145;49.342;9.116;2023-07-13T11:51:41;6.65;;;1.30;;
65535;SDS011;52145;49.342;9.116;2023-07-13T11:57:59;2.72;;;1.30;;
65535;SDS011;52145;49.342;9.116;2023-07-13T12:02:51;6.22;;;1.75;;
65535;SDS011;52145;49.342;9.116;2023-07-13T12:05:18;2.90;;;1.40;;
65535;SDS011;52145;49.342;9.116;2023-07-13T12:07:45;3.10;;;1.27;;
65535;SDS011;52145;49.342;9.116;2023-07-13T12:12:45;4.75;;;1.20;;
65535;SDS011;52145;49.342;9.116;2023-07-13T12:15:11;6.22;;;1.52;;
65535;SDS011;52145;49.342;9.116;2023-07-13T12:17:37;7.97;;;1.60;;
65535;SDS011;52145;49.342;9.116;2023-07-13T12:20:10;4.82;;;1.63;;
65535;SDS011;52145;49.342;9.116;2023-07-13T12:22:40;4.75;;;1.45;;
65535;SDS011;52145;49.342;9.116;2023-07-13T12:26:06;5.50;;;1.60;;
65535;SDS011;52145;49.342;9.116;2023-07-13T12:28:38;4.78;;;1.58;;
65535;SDS011;52145;49.342;9.116;2023-07-13T12:31:05;5.00;;;1.40;;
65535;SDS011;52145;49.342;9.116;2023-07-13T12:33:33;2.35;;;1.05;;
65535;SDS011;52145;49.342;9.116;2023-07-13T12:36:00;5.00;;;2.05;;
65535;SDS011;52145;49.342;9.116;2023-07-13T12:38:27;3.95;;;1.88;;
65535;SDS011;52145;49.342;9.116;2023-07-13T12:40:53;5.85;;;2.05;;
65535;SDS011;52145;49.342;9.116;2023-07-13T12:43:20;6.40;;;1.55;;
65535;SDS011;52145;49.342;9.116;2023-07-13T12:46:01;5.03;;;1.63;;
65535;SDS011;52145;49.342;9.116;2023-07-13T12:48:27;5.07;;;1.52;;
65535;SDS011;52145;49.342;9.116;2023-07-13T12:50:53;3.83;;;1.48;;
65535;SDS011;52145;49.342;9.116;2023-07-13T12:53:23;2.83;;;1.27;;
65535;SDS011;52145;49.342;9.116;2023-07-13T12:55:54;5.57;;;1.80;;
65535;SDS011;52145;49.342;9.116;2023-07-13T12:58:29;3.10;;;1.60;;
65535;SDS011;52145;49.342;9.116;2023-07-13T13:00:59;4.53;;;1.17;;
65535;SDS011;52145;49.342;9.116;2023-07-13T13:03:37;5.53;;;1.30;;
65535;SDS011;52145;49.342;9.116;2023-07-13T13:06:17;3.58;;;1.50;;
65535;SDS011;52145;49.342;9.116;2023-07-13T13:08:47;3.47;;;1.20;;
65535;SDS011;52145;49.342;9.116;2023-07-13T13:11:17;4.72;;;1.33;;
65535;SDS011;52145;49.342;9.116;2023-07-13T13:13:43;6.22;;;1.20;;
65535;SDS011;52145;49.342;9.116;2023-07-13T13:18:35;2.42;;;1.10;;
65535;SDS011;52145;49.342;9.116;2023-07-13T13:21:01;6.75;;;1.60;;
65535;SDS011;52145;49.342;9.116;2023-07-13T13:23:28;3.53;;;1.20;;
65535;SDS011;52145;49.342;9.116;2023-07-13T13:25:53;5.13;;;1.60;;
65535;SDS011;52145;49.342;9.116;2023-07-13T13:28:20;4.47;;;1.10;;
65535;SDS011;52145;49.342;9.116;2023-07-13T13:30:47;3.67;;;1.30;;
65535;SDS011;52145;49.342;9.116;2023-07-13T13:33:14;2.45;;;1.13;;
65535;SDS011;52145;49.342;9.116;2023-07-13T13:35:41;4.03;;;1.20;;
65535;SDS011;52145;49.342;9.116;2023-07-13T13:38:12;4.05;;;1.73;;
65535;SDS011;52145;49.342;9.116;2023-07-13T13:40:39;2.65;;;1.15;;
65535;SDS011;52145;49.342;9.116;2023-07-13T13:43:25;4.00;;;1.42;;
65535;SDS011;52145;49.342;9.116;2023-07-13T13:45:51;4.53;;;1.23;;
65535;SDS011;52145;49.342;9.116;2023-07-13T13:48:18;3.28;;;1.23;;
65535;SDS011;52145;49.342;9.116;2023-07-13T13:50:45;3.88;;;1.23;;
65535;SDS011;52145;49.342;9.116;2023-07-13T13:53:12;4.72;;;2.45;;
65535;SDS011;52145;49.342;9.116;2023-07-13T13:55:38;4.90;;;1.20;;
65535;SDS011;52145;49.342;9.116;2023-07-13T13:58:06;5.20;;;1.40;;
65535;SDS011;52145;49.342;9.116;2023-07-13T14:00:32;3.13;;;1.20;;
65535;SDS011;52145;49.342;9.116;2023-07-13T14:02:58;5.32;;;1.48;;
65535;SDS011;52145;49.342;9.116;2023-07-13T14:05:24;2.95;;;1.10;;
65535;SDS011;52145;49.342;9.116;2023-07-13T14:07:51;2.28;;;1.33;;
65535;SDS011;52145;49.342;9.116;2023-07-13T14:10:18;4.80;;;1.70;;
65535;SDS011;52145;49.342;9.116;2023-07-13T14:12:45;2.63;;;1.23;;
65535;SDS011;52145;49.342;9.116;2023-07-13T14:15:13;3.95;;;1.10;;
65535;SDS011;52145;49.342;9.116;2023-07-13T14:17:43;4.68;;;1.10;;
65535;SDS011;52145;49.342;9.116;2023-07-13T14:20:12;4.35;;;1.58;;
65535;SDS011;52145;49.342;9.116;2023-07-13T14:22:40;5.90;;;1.15;;
65535;SDS011;52145;49.342;9.116;2023-07-13T14:25:10;4.65;;;1.27;;
65535;SDS011;52145;49.342;9.116;2023-07-13T14:27:36;4.90;;;1.27;;
65535;SDS011;52145;49.342;9.116;2023-07-13T14:30:02;3.53;;;1.38;;
65535;SDS011;52145;49.342;9.116;2023-07-13T14:32:28;6.05;;;1.38;;
65535;SDS011;52145;49.342;9.116;2023-07-13T14:34:54;3.65;;;1.23;;
65535;SDS011;52145;49.342;9.116;2023-07-13T14:37:20;7.15;;;1.90;;
65535;SDS011;52145;49.342;9.116;2023-07-13T14:39:46;3.92;;;1.40;;
65535;SDS011;52145;49.342;9.116;2023-07-13T14:42:15;3.83;;;1.30;;
65535;SDS011;52145;49.342;9.116;2023-07-13T14:44:41;3.33;;;1.15;;
65535;SDS011;52145;49.342;9.116;2023-07-13T14:47:07;6.70;;;1.58;;
65535;SDS011;52145;49.342;9.116;2023-07-13T14:52:05;2.05;;;1.00;;
65535;SDS011;52145;49.342;9.116;2023-07-13T14:54:35;2.60;;;1.30;;
65535;SDS011;52145;49.342;9.116;2023-07-13T14:57:07;4.60;;;1.45;;
65535;SDS011;52145;49.342;9.116;2023-07-13T14:59:34;3.95;;;1.38;;
65535;SDS011;52145;49.342;9.116;2023-07-13T15:02:00;4.40;;;1.20;;
65535;SDS011;52145;49.342;9.116;2023-07-13T15:04:26;3.15;;;1.50;;
65535;SDS011;52145;49.342;9.116;2023-07-13T15:06:57;2.58;;;1.17;;
65535;SDS011;52145;49.342;9.116;2023-07-13T15:09:24;4.60;;;1.40;;
65535;SDS011;52145;49.342;9.116;2023-07-13T15:11:51;6.20;;;1.63;;
65535;SDS011;52145;49.342;9.116;2023-07-13T15:14:17;5.10;;;1.30;;
65535;SDS011;52145;49.342;9.116;2023-07-13T15:16:43;5.70;;;1.15;;
65535;SDS011;52145;49.342;9.116;2023-07-13T15:19:10;6.50;;;1.50;;
65535;SDS011;52145;49.342;9.116;2023-07-13T15:21:36;9.88;;;4.35;;
65535;SDS011;52145;49.342;9.116;2023-07-13T15:24:02;4.55;;;1.30;;
65535;SDS011;52145;49.342;9.116;2023-07-13T15:26:28;2.65;;;1.48;;
65535;SDS011;52145;49.342;9.116;2023-07-13T15:28:55;3.50;;;1.38;;
65535;SDS011;52145;49.342;9.116;2023-07-13T15:31:24;5.20;;;1.45;;
65535;SDS011;52145;49.342;9.116;2023-07-13T15:33:52;4.82;;;1.55;;
65535;SDS011;52145;49.342;9.116;2023-07-13T15:36:19;4.38;;;1.48;;